Time;durP1;ratioP1;P1;durP2;ratioP2;P2;SDS_P1;SDS_P2;PMS_P1;PMS_P2;Temp;Humidity;BMP_temperature;BMP_pressure;BME280_temperature;BME280_humidity;BME280_pressure;Samples;Min_cycle;Max_cycle;Signal;HPM_P1;HPM_P2
2020/11/25 00:05:17;;;;;;;25.3;17.5;;;;;;;-2.88;83.51367;99567.08;;;;
2020/11/25 00:15:14;;;;;;;22.1;16.1;;;;;;;-2.87;83.38281;99557.34;;;;
2020/11/25 00:25:11;;;;;;;29.2;17.1;;;;;;;-2.98;82.93848;99561.36;;;;
2020/11/25 00:35:08;;;;;;;36.3;19.8;;;;;;;-3.21;82.2168;99553.76;;;;
2020/11/25 00:45:06;;;;;;;32;17.4;;;;;;;-3.43;81.92285;99552.2;;;;
2020/11/25 00:55:02;;;;;;;33.3;19.2;;;;;;;-3.6;83.53516;99551.7;;;;
2020/11/25 01:04:59;;;;;;;21.4;15.6;;;;;;;-3.7;84.05859;99529.34;;;;
2020/11/25 01:14:57;;;;;;;30.6;14.6;;;;;;;-3.72;84.77441;99540.09;;;;
2020/11/25 01:24:53;;;;;;;23.9;13.9;;;;;;;-3.74;84.87988;99526.28;;;;
2020/11/25 01:34:50;;;;;;;26.7;14.1;;;;;;;-3.81;84.74609;99525.42;;;;
2020/11/25 01:44:47;;;;;;;28.3;14.8;;;;;;;-3.85;84.16016;99518.12;;;;
2020/11/25 01:54:44;;;;;;;18.4;11.2;;;;;;;-3.84;84.88184;99502.11;;;;
2020/11/25 02:04:46;;;;;;;24.5;13.7;;;;;;;-3.84;85.72852;99501.29;;;;
2020/11/25 02:14:38;;;;;;;16.7;12.2;;;;;;;-3.72;84.7207;99500.58;;;;
2020/11/25 02:24:35;;;;;;;18.8;11.9;;;;;;;-3.93;84.40332;99489.29;;;;
2020/11/25 02:34:32;;;;;;;16.5;12.7;;;;;;;-4.01;84.55078;99492.06;;;;
2020/11/25 02:44:29;;;;;;;25.1;13.8;;;;;;;-4.1;84.6875;99480.88;;;;
2020/11/25 02:54:26;;;;;;;18.8;13.4;;;;;;;-4.15;83.65625;99484.07;;;;
2020/11/25 03:04:23;;;;;;;20.2;12.2;;;;;;;-4.31;83.43945;99486.98;;;;
2020/11/25 03:14:20;;;;;;;26;15.8;;;;;;;-4.46;83.96191;99485.42;;;;
2020/11/25 03:24:17;;;;;;;32;17.4;;;;;;;-4.55;84.41113;99481.3;;;;
2020/11/25 03:34:13;;;;;;;22.4;13.7;;;;;;;-4.69;84.88379;99485.63;;;;
2020/11/25 03:44:10;;;;;;;21.4;14.1;;;;;;;-4.75;85.39258;99476.66;;;;
2020/11/25 03:54:07;;;;;;;31.9;19.3;;;;;;;-4.77;85.61719;99472.59;;;;
2020/11/25 04:04:04;;;;;;;31.5;18.2;;;;;;;-4.85;85.39453;99470.89;;;;
2020/11/25 04:14:01;;;;;;;24.4;16.3;;;;;;;-4.86;86.59668;99466.63;;;;
2020/11/25 04:23:59;;;;;;;100;57.6;;;;;;;-4.89;85.56934;99466.19;;;;
2020/11/25 04:33:55;;;;;;;31.9;24.1;;;;;;;-5;85.875;99462.27;;;;
2020/11/25 04:43:51;;;;;;;46.7;29.2;;;;;;;-4.92;86.8877;99450.8;;;;
2020/11/25 04:53:48;;;;;;;45.4;29.1;;;;;;;-4.94;85.35449;99450.18;;;;
2020/11/25 05:03:45;;;;;;;30.5;22.6;;;;;;;-5.07;85.10156;99454.28;;;;
2020/11/25 05:13:42;;;;;;;41.7;27.7;;;;;;;-5.14;85.95508;99448.14;;;;
2020/11/25 05:23:39;;;;;;;30.5;15.9;;;;;;;-5.15;86.24512;99457.05;;;;
2020/11/25 05:33:36;;;;;;;24.5;16.6;;;;;;;-5.16;84.61719;99458.03;;;;
2020/11/25 05:43:32;;;;;;;21.9;15.5;;;;;;;-5.07;87.5957;99456.91;;;;
2020/11/25 05:53:30;;;;;;;35;24.2;;;;;;;-4.8;88.90918;99463.27;;;;
2020/11/25 06:03:26;;;;;;;34.7;20.2;;;;;;;-4.85;86.63086;99456.93;;;;
2020/11/25 06:13:23;;;;;;;23.3;14;;;;;;;-4.97;86.19531;99454;;;;
2020/11/25 06:23:20;;;;;;;32.2;16.4;;;;;;;-5.01;86.37988;99449.3;;;;
2020/11/25 06:33:17;;;;;;;58.4;33.3;;;;;;;-5.05;85.70215;99454.11;;;;
2020/11/25 06:43:14;;;;;;;55.6;32.6;;;;;;;-4.88;85.9209;99447.61;;;;
2020/11/25 06:53:11;;;;;;;42.5;26.3;;;;;;;-4.74;85.05762;99438.03;;;;
2020/11/25 07:03:08;;;;;;;44.8;28.1;;;;;;;-4.66;84.94336;99437.91;;;;
2020/11/25 07:13:05;;;;;;;58.4;39;;;;;;;-4.45;86.5293;99430;;;;
2020/11/25 07:23:03;;;;;;;75.4;48.5;;;;;;;-4.21;85.9375;99428.76;;;;
2020/11/25 07:33:05;;;;;;;44.8;34.2;;;;;;;-3.9;85.50977;99436.24;;;;
2020/11/25 07:42:56;;;;;;;55.8;36.5;;;;;;;-3.74;84.58594;99434.1;;;;
2020/11/25 07:52:53;;;;;;;48.8;32;;;;;;;-3.59;84.00684;99432.16;;;;
2020/11/25 08:02:50;;;;;;;58.2;33;;;;;;;-3.23;84.5332;99441.63;;;;
2020/11/25 08:12:47;;;;;;;50.7;30.4;;;;;;;-2.85;84.63184;99434.02;;;;
2020/11/25 08:22:44;;;;;;;49.7;30.5;;;;;;;-2.49;85.10742;99425.71;;;;
2020/11/25 08:32:41;;;;;;;55.5;34.4;;;;;;;-1.95;84.96484;99413.09;;;;
2020/11/25 08:42:38;;;;;;;42.2;34.9;;;;;;;-1.37;84.26953;99410.45;;;;
2020/11/25 08:52:36;;;;;;;50.3;39.1;;;;;;;-0.83;83.19336;99415.25;;;;
2020/11/25 09:02:33;;;;;;;45;32.9;;;;;;;-0.33;81.8291;99405.48;;;;
2020/11/25 09:12:30;;;;;;;59.7;30.9;;;;;;;0.16;81.71484;99391.36;;;;
2020/11/25 09:22:28;;;;;;;43.3;35;;;;;;;0.63;80.47266;99387.13;;;;
2020/11/25 09:32:25;;;;;;;50;35.6;;;;;;;1.01;78.64941;99384.97;;;;
2020/11/25 09:42:23;;;;;;;35.2;27.4;;;;;;;1.39;77.15039;99379.3;;;;
2020/11/25 09:52:20;;;;;;;39;25.8;;;;;;;1.71;74.90918;99359.34;;;;
2020/11/25 10:02:18;;;;;;;32.1;23.1;;;;;;;2.33;74.1543;99354.3;;;;
2020/11/25 10:12:16;;;;;;;32.5;25.2;;;;;;;2.73;71.5166;99341.8;;;;
2020/11/25 10:22:13;;;;;;;26.8;19.6;;;;;;;3.29;69.56543;99342.78;;;;
2020/11/25 10:32:11;;;;;;;29;20.8;;;;;;;3.7;67.07129;99334.36;;;;
2020/11/25 10:42:09;;;;;;;25.6;19.5;;;;;;;4.06;63.99512;99320.45;;;;
2020/11/25 10:52:07;;;;;;;52.2;39;;;;;;;4.48;63.90137;99320.7;;;;
2020/11/25 11:02:05;;;;;;;94.8;62.2;;;;;;;4.65;65.1543;99306.48;;;;
2020/11/25 11:12:03;;;;;;;48.6;37.3;;;;;;;4.66;63.9834;99303.55;;;;
2020/11/25 11:22:01;;;;;;;46.4;36.5;;;;;;;4.79;62.80664;99305.81;;;;
2020/11/25 11:32:00;;;;;;;59.1;44;;;;;;;4.87;64.1709;99307.23;;;;
2020/11/25 11:41:57;;;;;;;72.8;58;;;;;;;4.76;64.80176;99305.52;;;;
2020/11/25 11:51:57;;;;;;;101.3;78.7;;;;;;;4.77;65.22852;99294.59;;;;
2020/11/25 12:01:53;;;;;;;49.6;43.1;;;;;;;4.66;64.50879;99292.88;;;;
2020/11/25 12:11:50;;;;;;;67.7;44;;;;;;;4.4;62.57031;99293.67;;;;
2020/11/25 12:21:48;;;;;;;91.4;65.5;;;;;;;4.3;65.37988;99290.89;;;;
2020/11/25 12:31:46;;;;;;;96.3;70.9;;;;;;;3.96;67.3457;99301.66;;;;
2020/11/25 12:41:44;;;;;;;85;71.7;;;;;;;3.92;67.72852;99291.75;;;;
2020/11/25 12:51:42;;;;;;;95.2;68.7;;;;;;;3.7;68.50781;99307.71;;;;
2020/11/25 13:01:40;;;;;;;87.3;66.2;;;;;;;3.72;68.44531;99302.92;;;;
2020/11/25 13:11:38;;;;;;;73.6;58.5;;;;;;;3.55;69.25098;99310.14;;;;
2020/11/25 13:21:36;;;;;;;78.6;56.2;;;;;;;3.46;69.61426;99308.95;;;;
2020/11/25 13:31:34;;;;;;;61;46.6;;;;;;;3.2;70.46191;99313.06;;;;
2020/11/25 13:41:31;;;;;;;47.6;35.5;;;;;;;3;71.46191;99313.53;;;;
2020/11/25 13:51:30;;;;;;;48.5;35.3;;;;;;;2.7;72.54297;99314.86;;;;
2020/11/25 14:01:27;;;;;;;42;31.3;;;;;;;2.41;73.71387;99330.81;;;;
2020/11/25 14:11:25;;;;;;;44;33.8;;;;;;;2.13;74.43945;99337.92;;;;
2020/11/25 14:21:22;;;;;;;67.1;40.1;;;;;;;1.8;75.50098;99347.34;;;;
2020/11/25 14:31:20;;;;;;;43.7;35.3;;;;;;;1.47;76.4043;99347.91;;;;
2020/11/25 14:41:18;;;;;;;44.3;30.6;;;;;;;1.11;77.17578;99347.28;;;;
2020/11/25 14:51:15;;;;;;;40.8;28.1;;;;;;;0.75;78.11621;99356.98;;;;
2020/11/25 15:01:13;;;;;;;42.8;30.5;;;;;;;0.41;79.10254;99369.05;;;;
2020/11/25 15:11:10;;;;;;;41.5;30.4;;;;;;;0.1;79.61426;99371.86;;;;
2020/11/25 15:21:09;;;;;;;36.7;29;;;;;;;-0.18;79.77051;99371.54;;;;
2020/11/25 15:31:05;;;;;;;39.1;31;;;;;;;-0.48;79.94531;99373.22;;;;
2020/11/25 15:41:03;;;;;;;51;33.8;;;;;;;-0.62;81.31348;99364.58;;;;
2020/11/25 15:51:01;;;;;;;35;30.3;;;;;;;-0.83;81.77832;99370.27;;;;
2020/11/25 16:01:01;;;;;;;43.3;29.2;;;;;;;-0.9;82.5;99364.22;;;;
2020/11/25 16:10:55;;;;;;;53.8;33.2;;;;;;;-0.94;83.37891;99376.24;;;;
2020/11/25 16:20:52;;;;;;;45.2;34.1;;;;;;;-1.05;83.31543;99367.97;;;;
2020/11/25 16:30:50;;;;;;;50;32.9;;;;;;;-1.15;82.68164;99369.45;;;;
2020/11/25 16:40:47;;;;;;;49.4;32.6;;;;;;;-1.29;82.39258;99378.48;;;;
2020/11/25 16:50:45;;;;;;;38.3;29.7;;;;;;;-1.43;83.15137;99382.22;;;;
2020/11/25 17:00:42;;;;;;;41.7;32.6;;;;;;;-1.64;83.05859;99399.99;;;;
2020/11/25 17:10:41;;;;;;;53.3;33.1;;;;;;;-1.83;82.68066;99400.03;;;;
2020/11/25 17:20:37;;;;;;;53.7;34.9;;;;;;;-2.05;83.25098;99397.64;;;;
2020/11/25 17:30:34;;;;;;;54.2;33;;;;;;;-2.18;83.5752;99397.67;;;;
2020/11/25 17:40:31;;;;;;;64.3;41.8;;;;;;;-2.28;84.89941;99410.48;;;;
2020/11/25 17:50:29;;;;;;;47.8;35.3;;;;;;;-2.35;84.67773;99407.03;;;;
2020/11/25 18:00:26;;;;;;;74;43.1;;;;;;;-2.41;84.66504;99413.14;;;;
2020/11/25 18:10:23;;;;;;;53.5;36.4;;;;;;;-2.5;84.96484;99406.45;;;;
2020/11/25 18:20:20;;;;;;;55.3;36.7;;;;;;;-2.56;84.85449;99408.06;;;;
2020/11/25 18:30:18;;;;;;;57.4;35.5;;;;;;;-2.75;84.94629;99402.78;;;;
2020/11/25 18:40:15;;;;;;;56.4;35.6;;;;;;;-2.9;84.81934;99397.69;;;;
2020/11/25 18:50:12;;;;;;;50;32.1;;;;;;;-3.1;84.58203;99384.48;;;;
2020/11/25 19:00:09;;;;;;;59.7;34.7;;;;;;;-3.25;85.52148;99389.1;;;;
2020/11/25 19:10:06;;;;;;;55.9;43;;;;;;;-3.29;86.03711;99393.14;;;;
2020/11/25 19:20:04;;;;;;;44.4;32.5;;;;;;;-3.38;86.11523;99390.89;;;;
2020/11/25 19:30:01;;;;;;;54.5;33;;;;;;;-3.41;86.58887;99400.02;;;;
2020/11/25 19:40:01;;;;;;;47.3;30.5;;;;;;;-3.48;86.56543;99396.54;;;;
2020/11/25 19:49:58;;;;;;;49.8;25.8;;;;;;;-3.55;86.32227;99398.34;;;;
2020/11/25 19:59:52;;;;;;;42.7;26.4;;;;;;;-3.62;86.22949;99400.13;;;;
2020/11/25 20:09:49;;;;;;;40.2;26.6;;;;;;;-3.62;86.83008;99406.22;;;;
2020/11/25 20:19:46;;;;;;;55.4;29.3;;;;;;;-3.55;87.44238;99398.34;;;;
2020/11/25 20:29:44;;;;;;;46.3;30.2;;;;;;;-3.64;86.4541;99399.49;;;;
2020/11/25 20:39:43;;;;;;;46.4;31.3;;;;;;;-3.69;86.7168;99399.29;;;;
2020/11/25 20:49:39;;;;;;;39.8;29.4;;;;;;;-3.7;86.5957;99393.2;;;;
2020/11/25 20:59:35;;;;;;;48.3;29.5;;;;;;;-3.75;86.4541;99402.71;;;;
2020/11/25 21:09:32;;;;;;;42.9;30.6;;;;;;;-3.83;86.31836;99397.59;;;;
2020/11/25 21:19:32;;;;;;;39.5;26.5;;;;;;;-3.85;86.34668;99400.41;;;;
2020/11/25 21:29:30;;;;;;;47;27.4;;;;;;;-3.91;86.37793;99403.83;;;;
2020/11/25 21:39:23;;;;;;;39;26.5;;;;;;;-3.96;86.29297;99419.41;;;;
2020/11/25 21:49:23;;;;;;;36.7;25.1;;;;;;;-4.03;86.01563;99417.74;;;;
2020/11/25 21:59:20;;;;;;;51.6;30.3;;;;;;;-4.14;85.93945;99426.98;;;;
2020/11/25 22:09:14;;;;;;;47.5;27.9;;;;;;;-4.19;86.6709;99435.45;;;;
2020/11/25 22:19:11;;;;;;;40.7;29.2;;;;;;;-4.14;87.31934;99432.25;;;;
2020/11/25 22:29:08;;;;;;;44.7;28.8;;;;;;;-4.07;87.75977;99439.19;;;;
2020/11/25 22:39:05;;;;;;;45.1;31;;;;;;;-3.96;88.02051;99435.21;;;;
2020/11/25 22:49:02;;;;;;;45;28.3;;;;;;;-3.69;88.49023;99417.72;;;;
2020/11/25 22:59:01;;;;;;;43;26.8;;;;;;;-3.6;87.74707;99412.09;;;;
2020/11/25 23:08:56;;;;;;;42;30.9;;;;;;;-3.37;87.68652;99405.7;;;;
2020/11/25 23:18:53;;;;;;;49.3;30.7;;;;;;;-3.31;87.30566;99403.08;;;;
2020/11/25 23:28:51;;;;;;;62.5;36.1;;;;;;;-3.27;86.79199;99392.95;;;;
2020/11/25 23:38:48;;;;;;;48.4;32.4;;;;;;;-3.26;86.9248;99379.56;;;;
2020/11/25 23:48:45;;;;;;;44.4;30.7;;;;;;;-3.17;87.12988;99373.11;;;;
2020/11/25 23:58:42;;;;;;;50.4;27.9;;;;;;;-3.13;87.05078;99371.7;;;;
